sensor_id;sensor_type;location;lat;lon;timestamp;P1;durP1;ratioP1;P2;durP2;ratioP2
61505;SDS011;47366;51.916;4.574;2023-04-06T00:02:15;6.07;;;3.88;;
61505;SDS011;47366;51.916;4.574;2023-04-06T00:04:40;7.60;;;3.78;;
61505;SDS011;47366;51.916;4.574;2023-04-06T00:07:06;6.28;;;3.42;;
61505;SDS011;47366;51.916;4.574;2023-04-06T00:09:31;7.10;;;3.10;;
61505;SDS011;47366;51.916;4.574;2023-04-06T00:11:56;4.97;;;3.38;;
61505;SDS011;47366;51.916;4.574;2023-04-06T00:14:23;4.40;;;2.60;;
61505;SDS011;47366;51.916;4.574;2023-04-06T00:16:48;4.15;;;2.72;;
61505;SDS011;47366;51.916;4.574;2023-04-06T00:19:13;5.88;;;2.47;;
61505;SDS011;47366;51.916;4.574;2023-04-06T00:21:39;6.10;;;3.17;;
61505;SDS011;47366;51.916;4.574;2023-04-06T00:24:04;3.63;;;2.17;;
61505;SDS011;47366;51.916;4.574;2023-04-06T00:26:30;3.05;;;2.10;;
61505;SDS011;47366;51.916;4.574;2023-04-06T00:28:55;3.15;;;2.10;;
61505;SDS011;47366;51.916;4.574;2023-04-06T00:31:21;3.95;;;2.40;;
61505;SDS011;47366;51.916;4.574;2023-04-06T00:33:47;3.80;;;2.50;;
61505;SDS011;47366;51.916;4.574;2023-04-06T00:36:13;4.25;;;2.80;;
61505;SDS011;47366;51.916;4.574;2023-04-06T00:38:38;4.15;;;2.78;;
61505;SDS011;47366;51.916;4.574;2023-04-06T00:41:03;6.10;;;3.20;;
61505;SDS011;47366;51.916;4.574;2023-04-06T00:43:29;4.07;;;2.40;;
61505;SDS011;47366;51.916;4.574;2023-04-06T00:45:54;5.03;;;2.60;;
61505;SDS011;47366;51.916;4.574;2023-04-06T00:48:20;3.83;;;2.17;;
61505;SDS011;47366;51.916;4.574;2023-04-06T00:50:45;4.72;;;2.22;;
61505;SDS011;47366;51.916;4.574;2023-04-06T00:53:10;4.07;;;1.90;;
61505;SDS011;47366;51.916;4.574;2023-04-06T00:55:36;3.78;;;2.28;;
61505;SDS011;47366;51.916;4.574;2023-04-06T00:58:01;4.60;;;2.25;;
61505;SDS011;47366;51.916;4.574;2023-04-06T01:00:27;5.32;;;1.80;;
61505;SDS011;47366;51.916;4.574;2023-04-06T01:02:52;3.88;;;2.70;;
61505;SDS011;47366;51.916;4.574;2023-04-06T01:05:18;3.17;;;2.03;;
61505;SDS011;47366;51.916;4.574;2023-04-06T01:07:44;8.27;;;2.88;;
61505;SDS011;47366;51.916;4.574;2023-04-06T01:10:10;4.47;;;2.55;;
61505;SDS011;47366;51.916;4.574;2023-04-06T01:12:36;3.95;;;2.03;;
61505;SDS011;47366;51.916;4.574;2023-04-06T01:15:04;3.38;;;2.05;;
61505;SDS011;47366;51.916;4.574;2023-04-06T01:17:30;4.22;;;2.15;;
61505;SDS011;47366;51.916;4.574;2023-04-06T01:19:56;4.13;;;2.08;;
61505;SDS011;47366;51.916;4.574;2023-04-06T01:22:21;2.72;;;1.92;;
61505;SDS011;47366;51.916;4.574;2023-04-06T01:24:48;3.92;;;2.10;;
61505;SDS011;47366;51.916;4.574;2023-04-06T01:27:14;4.30;;;2.33;;
61505;SDS011;47366;51.916;4.574;2023-04-06T01:29:39;3.95;;;2.13;;
61505;SDS011;47366;51.916;4.574;2023-04-06T01:32:08;8.18;;;2.70;;
61505;SDS011;47366;51.916;4.574;2023-04-06T01:34:33;3.10;;;2.33;;
61505;SDS011;47366;51.916;4.574;2023-04-06T01:36:59;5.03;;;3.22;;
61505;SDS011;47366;51.916;4.574;2023-04-06T01:39:24;4.03;;;2.45;;
61505;SDS011;47366;51.916;4.574;2023-04-06T01:41:51;3.45;;;2.03;;
61505;SDS011;47366;51.916;4.574;2023-04-06T01:44:16;4.32;;;2.67;;
61505;SDS011;47366;51.916;4.574;2023-04-06T01:46:43;3.38;;;2.33;;
61505;SDS011;47366;51.916;4.574;2023-04-06T01:49:08;3.33;;;2.20;;
61505;SDS011;47366;51.916;4.574;2023-04-06T01:51:33;5.10;;;3.05;;
61505;SDS011;47366;51.916;4.574;2023-04-06T01:53:58;4.63;;;2.70;;
61505;SDS011;47366;51.916;4.574;2023-04-06T01:56:24;3.95;;;2.58;;
61505;SDS011;47366;51.916;4.574;2023-04-06T01:58:49;3.85;;;2.17;;
61505;SDS011;47366;51.916;4.574;2023-04-06T02:01:15;3.30;;;2.13;;
61505;SDS011;47366;51.916;4.574;2023-04-06T02:03:40;5.85;;;2.72;;
61505;SDS011;47366;51.916;4.574;2023-04-06T02:06:06;2.97;;;2.08;;
61505;SDS011;47366;51.916;4.574;2023-04-06T02:08:31;3.25;;;2.20;;
61505;SDS011;47366;51.916;4.574;2023-04-06T02:10:56;5.70;;;2.88;;
61505;SDS011;47366;51.916;4.574;2023-04-06T02:13:22;5.70;;;2.95;;
61505;SDS011;47366;51.916;4.574;2023-04-06T02:15:47;6.00;;;2.83;;
61505;SDS011;47366;51.916;4.574;2023-04-06T02:18:12;4.18;;;2.95;;
61505;SDS011;47366;51.916;4.574;2023-04-06T02:20:38;4.88;;;2.53;;
61505;SDS011;47366;51.916;4.574;2023-04-06T02:23:03;5.35;;;2.45;;
61505;SDS011;47366;51.916;4.574;2023-04-06T02:25:28;4.97;;;2.58;;
61505;SDS011;47366;51.916;4.574;2023-04-06T02:27:54;4.55;;;2.38;;
61505;SDS011;47366;51.916;4.574;2023-04-06T02:30:19;7.20;;;3.95;;
61505;SDS011;47366;51.916;4.574;2023-04-06T02:32:45;5.65;;;3.58;;
61505;SDS011;47366;51.916;4.574;2023-04-06T02:35:10;3.40;;;2.35;;
61505;SDS011;47366;51.916;4.574;2023-04-06T02:37:35;4.25;;;2.88;;
61505;SDS011;47366;51.916;4.574;2023-04-06T02:40:00;4.93;;;3.13;;
61505;SDS011;47366;51.916;4.574;2023-04-06T02:42:26;7.20;;;3.40;;
61505;SDS011;47366;51.916;4.574;2023-04-06T02:44:51;6.00;;;3.42;;
61505;SDS011;47366;51.916;4.574;2023-04-06T02:47:16;4.68;;;2.92;;
61505;SDS011;47366;51.916;4.574;2023-04-06T02:49:42;5.43;;;3.30;;
61505;SDS011;47366;51.916;4.574;2023-04-06T02:52:07;5.90;;;2.83;;
61505;SDS011;47366;51.916;4.574;2023-04-06T02:54:32;5.35;;;2.90;;
61505;SDS011;47366;51.916;4.574;2023-04-06T02:56:58;5.35;;;2.65;;
61505;SDS011;47366;51.916;4.574;2023-04-06T02:59:23;5.13;;;3.03;;
61505;SDS011;47366;51.916;4.574;2023-04-06T03:01:48;6.03;;;2.85;;
61505;SDS011;47366;51.916;4.574;2023-04-06T03:04:14;5.35;;;3.50;;
61505;SDS011;47366;51.916;4.574;2023-04-06T03:06:39;4.15;;;2.60;;
61505;SDS011;47366;51.916;4.574;2023-04-06T03:09:05;5.78;;;2.97;;
61505;SDS011;47366;51.916;4.574;2023-04-06T03:11:32;7.22;;;3.17;;
61505;SDS011;47366;51.916;4.574;2023-04-06T03:13:57;4.95;;;2.78;;
61505;SDS011;47366;51.916;4.574;2023-04-06T03:16:22;5.65;;;3.28;;
61505;SDS011;47366;51.916;4.574;2023-04-06T03:18:48;4.63;;;2.40;;
61505;SDS011;47366;51.916;4.574;2023-04-06T03:21:13;7.45;;;3.13;;
61505;SDS011;47366;51.916;4.574;2023-04-06T03:23:42;4.55;;;2.85;;
61505;SDS011;47366;51.916;4.574;2023-04-06T03:26:07;3.58;;;2.30;;
61505;SDS011;47366;51.916;4.574;2023-04-06T03:28:33;8.57;;;3.15;;
61505;SDS011;47366;51.916;4.574;2023-04-06T03:30:58;9.20;;;3.35;;
61505;SDS011;47366;51.916;4.574;2023-04-06T03:33:24;9.70;;;3.88;;
61505;SDS011;47366;51.916;4.574;2023-04-06T03:35:51;10.07;;;4.18;;
61505;SDS011;47366;51.916;4.574;2023-04-06T03:38:17;9.38;;;4.53;;
61505;SDS011;47366;51.916;4.574;2023-04-06T03:40:42;9.15;;;3.92;;
61505;SDS011;47366;51.916;4.574;2023-04-06T03:43:08;5.32;;;2.05;;
61505;SDS011;47366;51.916;4.574;2023-04-06T03:45:33;7.53;;;2.90;;
61505;SDS011;47366;51.916;4.574;2023-04-06T03:47:59;5.95;;;3.15;;
61505;SDS011;47366;51.916;4.574;2023-04-06T03:50:24;5.88;;;3.20;;
61505;SDS011;47366;51.916;4.574;2023-04-06T03:52:50;5.72;;;3.22;;
61505;SDS011;47366;51.916;4.574;2023-04-06T03:55:15;8.57;;;4.03;;
61505;SDS011;47366;51.916;4.574;2023-04-06T03:57:40;6.70;;;3.78;;
61505;SDS011;47366;51.916;4.574;2023-04-06T04:00:06;5.60;;;2.97;;
61505;SDS011;47366;51.916;4.574;2023-04-06T04:02:32;7.00;;;2.58;;
61505;SDS011;47366;51.916;4.574;2023-04-06T04:04:57;4.65;;;2.92;;
61505;SDS011;47366;51.916;4.574;2023-04-06T04:07:23;7.93;;;3.65;;
61505;SDS011;47366;51.916;4.574;2023-04-06T04:09:48;5.82;;;2.88;;
61505;SDS011;47366;51.916;4.574;2023-04-06T04:12:13;4.38;;;2.53;;
61505;SDS011;47366;51.916;4.574;2023-04-06T04:14:40;6.40;;;3.10;;
61505;SDS011;47366;51.916;4.574;2023-04-06T04:17:05;7.28;;;3.85;;
61505;SDS011;47366;51.916;4.574;2023-04-06T04:19:30;5.65;;;2.50;;
61505;SDS011;47366;51.916;4.574;2023-04-06T04:21:56;6.10;;;3.50;;
61505;SDS011;47366;51.916;4.574;2023-04-06T04:24:21;5.30;;;3.47;;
61505;SDS011;47366;51.916;4.574;2023-04-06T04:26:46;7.28;;;3.05;;
61505;SDS011;47366;51.916;4.574;2023-04-06T04:29:12;5.53;;;2.63;;
61505;SDS011;47366;51.916;4.574;2023-04-06T04:31:37;5.15;;;3.33;;
61505;SDS011;47366;51.916;4.574;2023-04-06T04:34:02;3.97;;;2.80;;
61505;SDS011;47366;51.916;4.574;2023-04-06T04:36:28;9.13;;;3.70;;
61505;SDS011;47366;51.916;4.574;2023-04-06T04:38:54;8.88;;;4.28;;
61505;SDS011;47366;51.916;4.574;2023-04-06T04:41:20;5.93;;;3.33;;
61505;SDS011;47366;51.916;4.574;2023-04-06T04:43:45;9.07;;;2.80;;
61505;SDS011;47366;51.916;4.574;2023-04-06T04:46:10;6.35;;;3.78;;
61505;SDS011;47366;51.916;4.574;2023-04-06T04:48:36;6.07;;;3.05;;
61505;SDS011;47366;51.916;4.574;2023-04-06T04:51:01;6.82;;;3.35;;
61505;SDS011;47366;51.916;4.574;2023-04-06T04:53:26;7.03;;;3.00;;
61505;SDS011;47366;51.916;4.574;2023-04-06T04:55:52;5.63;;;3.28;;
61505;SDS011;47366;51.916;4.574;2023-04-06T04:58:17;7.43;;;3.67;;
61505;SDS011;47366;51.916;4.574;2023-04-06T05:00:44;9.63;;;4.18;;
61505;SDS011;47366;51.916;4.574;2023-04-06T05:03:13;4.63;;;3.22;;
61505;SDS011;47366;51.916;4.574;2023-04-06T05:05:45;4.72;;;2.95;;
61505;SDS011;47366;51.916;4.574;2023-04-06T05:08:11;5.03;;;3.42;;
61505;SDS011;47366;51.916;4.574;2023-04-06T05:10:36;4.55;;;2.88;;
61505;SDS011;47366;51.916;4.574;2023-04-06T05:13:02;5.30;;;3.20;;
61505;SDS011;47366;51.916;4.574;2023-04-06T05:15:27;5.28;;;2.90;;
61505;SDS011;47366;51.916;4.574;2023-04-06T05:17:53;5.18;;;3.10;;
61505;SDS011;47366;51.916;4.574;2023-04-06T05:20:18;6.38;;;3.95;;
61505;SDS011;47366;51.916;4.574;2023-04-06T05:22:43;10.85;;;4.40;;
61505;SDS011;47366;51.916;4.574;2023-04-06T05:25:09;5.28;;;3.55;;
61505;SDS011;47366;51.916;4.574;2023-04-06T05:27:34;5.97;;;3.17;;
61505;SDS011;47366;51.916;4.574;2023-04-06T05:30:00;5.88;;;3.42;;
61505;SDS011;47366;51.916;4.574;2023-04-06T05:32:26;7.25;;;4.43;;
61505;SDS011;47366;51.916;4.574;2023-04-06T05:34:52;8.25;;;3.35;;
61505;SDS011;47366;51.916;4.574;2023-04-06T05:37:18;5.32;;;3.05;;
61505;SDS011;47366;51.916;4.574;2023-04-06T05:39:43;8.30;;;4.65;;
61505;SDS011;47366;51.916;4.574;2023-04-06T05:42:09;6.78;;;3.85;;
61505;SDS011;47366;51.916;4.574;2023-04-06T05:44:36;5.70;;;3.40;;
61505;SDS011;47366;51.916;4.574;2023-04-06T05:47:02;6.80;;;4.00;;
61505;SDS011;47366;51.916;4.574;2023-04-06T05:49:27;7.63;;;4.43;;
61505;SDS011;47366;51.916;4.574;2023-04-06T05:51:54;6.20;;;3.28;;
61505;SDS011;47366;51.916;4.574;2023-04-06T05:54:20;4.05;;;2.63;;
61505;SDS011;47366;51.916;4.574;2023-04-06T05:56:45;7.68;;;4.60;;
61505;SDS011;47366;51.916;4.574;2023-04-06T05:59:11;6.53;;;3.78;;
61505;SDS011;47366;51.916;4.574;2023-04-06T06:01:36;5.43;;;3.22;;
61505;SDS011;47366;51.916;4.574;2023-04-06T06:04:01;6.20;;;3.17;;
61505;SDS011;47366;51.916;4.574;2023-04-06T06:06:27;8.98;;;4.00;;
61505;SDS011;47366;51.916;4.574;2023-04-06T06:08:53;5.75;;;3.70;;
61505;SDS011;47366;51.916;4.574;2023-04-06T06:11:18;6.43;;;3.53;;
61505;SDS011;47366;51.916;4.574;2023-04-06T06:13:43;6.72;;;3.47;;
61505;SDS011;47366;51.916;4.574;2023-04-06T06:16:08;6.20;;;3.20;;
61505;SDS011;47366;51.916;4.574;2023-04-06T06:18:34;7.55;;;3.70;;
61505;SDS011;47366;51.916;4.574;2023-04-06T06:21:01;6.60;;;3.15;;
61505;SDS011;47366;51.916;4.574;2023-04-06T06:23:26;10.82;;;4.38;;
61505;SDS011;47366;51.916;4.574;2023-04-06T06:25:52;8.88;;;4.30;;
61505;SDS011;47366;51.916;4.574;2023-04-06T06:28:17;8.77;;;4.20;;
61505;SDS011;47366;51.916;4.574;2023-04-06T06:30:42;9.60;;;3.53;;
61505;SDS011;47366;51.916;4.574;2023-04-06T06:33:08;6.25;;;3.60;;
61505;SDS011;47366;51.916;4.574;2023-04-06T06:35:33;6.70;;;3.75;;
61505;SDS011;47366;51.916;4.574;2023-04-06T06:37:58;7.15;;;3.72;;
61505;SDS011;47366;51.916;4.574;2023-04-06T06:40:23;13.32;;;4.18;;
61505;SDS011;47366;51.916;4.574;2023-04-06T06:42:49;10.75;;;4.38;;
61505;SDS011;47366;51.916;4.574;2023-04-06T06:45:16;11.02;;;4.90;;
61505;SDS011;47366;51.916;4.574;2023-04-06T06:47:41;10.88;;;4.35;;
61505;SDS011;47366;51.916;4.574;2023-04-06T06:50:06;5.28;;;3.83;;
61505;SDS011;47366;51.916;4.574;2023-04-06T06:52:32;6.43;;;3.75;;
61505;SDS011;47366;51.916;4.574;2023-04-06T06:54:57;12.68;;;4.70;;
61505;SDS011;47366;51.916;4.574;2023-04-06T06:57:23;7.20;;;4.93;;
61505;SDS011;47366;51.916;4.574;2023-04-06T06:59:48;6.72;;;3.85;;
61505;SDS011;47366;51.916;4.574;2023-04-06T07:02:13;6.50;;;4.40;;
61505;SDS011;47366;51.916;4.574;2023-04-06T07:04:39;7.75;;;4.28;;
61505;SDS011;47366;51.916;4.574;2023-04-06T07:07:05;8.65;;;4.93;;
61505;SDS011;47366;51.916;4.574;2023-04-06T07:09:30;8.65;;;4.50;;
61505;SDS011;47366;51.916;4.574;2023-04-06T07:11:55;9.25;;;5.18;;
61505;SDS011;47366;51.916;4.574;2023-04-06T07:14:21;7.47;;;4.72;;
61505;SDS011;47366;51.916;4.574;2023-04-06T07:16:47;8.60;;;3.95;;
61505;SDS011;47366;51.916;4.574;2023-04-06T07:19:13;8.65;;;4.32;;
61505;SDS011;47366;51.916;4.574;2023-04-06T07:21:39;6.88;;;3.63;;
61505;SDS011;47366;51.916;4.574;2023-04-06T07:24:04;10.25;;;4.80;;
61505;SDS011;47366;51.916;4.574;2023-04-06T07:26:29;7.53;;;4.95;;
61505;SDS011;47366;51.916;4.574;2023-04-06T07:28:55;8.02;;;3.85;;
61505;SDS011;47366;51.916;4.574;2023-04-06T07:31:20;7.70;;;4.38;;
61505;SDS011;47366;51.916;4.574;2023-04-06T07:33:46;7.50;;;4.05;;
61505;SDS011;47366;51.916;4.574;2023-04-06T07:36:12;12.07;;;5.35;;
61505;SDS011;47366;51.916;4.574;2023-04-06T07:38:37;6.35;;;4.05;;
61505;SDS011;47366;51.916;4.574;2023-04-06T07:41:02;5.75;;;3.72;;
61505;SDS011;47366;51.916;4.574;2023-04-06T07:43:29;8.07;;;4.45;;
61505;SDS011;47366;51.916;4.574;2023-04-06T07:45:55;8.23;;;4.00;;
61505;SDS011;47366;51.916;4.574;2023-04-06T07:48:22;8.30;;;4.38;;
61505;SDS011;47366;51.916;4.574;2023-04-06T07:50:47;9.05;;;4.90;;
61505;SDS011;47366;51.916;4.574;2023-04-06T07:53:13;5.53;;;3.33;;
61505;SDS011;47366;51.916;4.574;2023-04-06T07:55:38;8.18;;;4.70;;
61505;SDS011;47366;51.916;4.574;2023-04-06T07:58:03;6.97;;;4.47;;
61505;SDS011;47366;51.916;4.574;2023-04-06T08:00:29;8.80;;;5.07;;
61505;SDS011;47366;51.916;4.574;2023-04-06T08:02:55;6.32;;;4.50;;
61505;SDS011;47366;51.916;4.574;2023-04-06T08:05:20;8.82;;;4.47;;
61505;SDS011;47366;51.916;4.574;2023-04-06T08:07:46;7.28;;;3.35;;
61505;SDS011;47366;51.916;4.574;2023-04-06T08:10:11;9.30;;;4.85;;
61505;SDS011;47366;51.916;4.574;2023-04-06T08:12:36;9.10;;;4.40;;
61505;SDS011;47366;51.916;4.574;2023-04-06T08:15:02;15.23;;;5.60;;
61505;SDS011;47366;51.916;4.574;2023-04-06T08:17:28;8.02;;;4.32;;
61505;SDS011;47366;51.916;4.574;2023-04-06T08:19:55;6.10;;;3.58;;
61505;SDS011;47366;51.916;4.574;2023-04-06T08:22:20;4.88;;;3.63;;
61505;SDS011;47366;51.916;4.574;2023-04-06T08:24:46;7.20;;;4.40;;
61505;SDS011;47366;51.916;4.574;2023-04-06T08:27:11;6.18;;;4.03;;
61505;SDS011;47366;51.916;4.574;2023-04-06T08:29:38;5.82;;;3.22;;
61505;SDS011;47366;51.916;4.574;2023-04-06T08:32:04;5.60;;;2.55;;
61505;SDS011;47366;51.916;4.574;2023-04-06T08:34:30;7.90;;;3.38;;
61505;SDS011;47366;51.916;4.574;2023-04-06T08:36:57;7.90;;;4.22;;
61505;SDS011;47366;51.916;4.574;2023-04-06T08:39:23;5.10;;;3.25;;
61505;SDS011;47366;51.916;4.574;2023-04-06T08:41:51;6.85;;;4.55;;
61505;SDS011;47366;51.916;4.574;2023-04-06T08:44:17;6.18;;;3.40;;
61505;SDS011;47366;51.916;4.574;2023-04-06T08:46:43;7.47;;;4.28;;
61505;SDS011;47366;51.916;4.574;2023-04-06T08:49:09;8.98;;;4.22;;
61505;SDS011;47366;51.916;4.574;2023-04-06T08:51:36;5.32;;;3.25;;
61505;SDS011;47366;51.916;4.574;2023-04-06T08:54:03;4.88;;;3.22;;
61505;SDS011;47366;51.916;4.574;2023-04-06T08:56:28;5.05;;;3.50;;
61505;SDS011;47366;51.916;4.574;2023-04-06T08:58:54;7.90;;;3.65;;
61505;SDS011;47366;51.916;4.574;2023-04-06T09:01:21;6.97;;;3.90;;
61505;SDS011;47366;51.916;4.574;2023-04-06T09:03:48;3.30;;;2.10;;
61505;SDS011;47366;51.916;4.574;2023-04-06T09:06:15;5.65;;;3.20;;
61505;SDS011;47366;51.916;4.574;2023-04-06T09:08:41;7.40;;;3.03;;
61505;SDS011;47366;51.916;4.574;2023-04-06T09:11:07;3.67;;;2.05;;
61505;SDS011;47366;51.916;4.574;2023-04-06T09:13:49;7.28;;;3.20;;
61505;SDS011;47366;51.916;4.574;2023-04-06T09:16:16;3.08;;;1.98;;
61505;SDS011;47366;51.916;4.574;2023-04-06T09:18:42;5.32;;;2.28;;
61505;SDS011;47366;51.916;4.574;2023-04-06T09:21:07;3.45;;;1.70;;
61505;SDS011;47366;51.916;4.574;2023-04-06T09:23:34;2.95;;;1.85;;
61505;SDS011;47366;51.916;4.574;2023-04-06T09:26:06;3.33;;;2.00;;
61505;SDS011;47366;51.916;4.574;2023-04-06T09:31:07;2.40;;;1.55;;
61505;SDS011;47366;51.916;4.574;2023-04-06T09:33:36;3.55;;;1.83;;
61505;SDS011;47366;51.916;4.574;2023-04-06T09:36:03;3.22;;;1.95;;
61505;SDS011;47366;51.916;4.574;2023-04-06T09:38:29;2.35;;;1.77;;
61505;SDS011;47366;51.916;4.574;2023-04-06T09:40:54;4.50;;;2.85;;
61505;SDS011;47366;51.916;4.574;2023-04-06T09:43:26;2.60;;;1.67;;
61505;SDS011;47366;51.916;4.574;2023-04-06T09:45:51;5.03;;;2.42;;
61505;SDS011;47366;51.916;4.574;2023-04-06T09:48:18;6.20;;;2.22;;
61505;SDS011;47366;51.916;4.574;2023-04-06T09:50:46;2.95;;;1.95;;
61505;SDS011;47366;51.916;4.574;2023-04-06T09:53:12;2.35;;;1.58;;
61505;SDS011;47366;51.916;4.574;2023-04-06T09:55:40;3.63;;;2.25;;
61505;SDS011;47366;51.916;4.574;2023-04-06T09:58:12;2.20;;;1.50;;
61505;SDS011;47366;51.916;4.574;2023-04-06T10:08:30;2.80;;;1.23;;
61505;SDS011;47366;51.916;4.574;2023-04-06T10:11:00;3.35;;;2.17;;
61505;SDS011;47366;51.916;4.574;2023-04-06T10:13:27;4.45;;;1.75;;
61505;SDS011;47366;51.916;4.574;2023-04-06T10:15:52;3.03;;;1.73;;
61505;SDS011;47366;51.916;4.574;2023-04-06T10:18:18;2.72;;;1.63;;
61505;SDS011;47366;51.916;4.574;2023-04-06T10:20:49;2.20;;;1.67;;
61505;SDS011;47366;51.916;4.574;2023-04-06T10:25:58;2.55;;;1.65;;
61505;SDS011;47366;51.916;4.574;2023-04-06T10:28:25;2.85;;;1.95;;
61505;SDS011;47366;51.916;4.574;2023-04-06T10:30:58;2.42;;;1.65;;
61505;SDS011;47366;51.916;4.574;2023-04-06T10:33:26;5.50;;;2.50;;
61505;SDS011;47366;51.916;4.574;2023-04-06T10:35:51;6.03;;;1.52;;
61505;SDS011;47366;51.916;4.574;2023-04-06T10:38:17;2.50;;;1.35;;
61505;SDS011;47366;51.916;4.574;2023-04-06T10:40:46;2.15;;;1.25;;
61505;SDS011;47366;51.916;4.574;2023-04-06T10:43:13;3.83;;;2.03;;
61505;SDS011;47366;51.916;4.574;2023-04-06T10:45:43;5.45;;;2.33;;
61505;SDS011;47366;51.916;4.574;2023-04-06T10:48:12;4.13;;;1.85;;
61505;SDS011;47366;51.916;4.574;2023-04-06T10:50:46;6.05;;;2.15;;
61505;SDS011;47366;51.916;4.574;2023-04-06T10:53:20;6.57;;;2.42;;
61505;SDS011;47366;51.916;4.574;2023-04-06T10:55:56;5.63;;;2.13;;
61505;SDS011;47366;51.916;4.574;2023-04-06T10:58:26;5.22;;;2.70;;
61505;SDS011;47366;51.916;4.574;2023-04-06T11:00:52;2.33;;;1.42;;
61505;SDS011;47366;51.916;4.574;2023-04-06T11:03:19;6.15;;;2.60;;
61505;SDS011;47366;51.916;4.574;2023-04-06T11:05:48;4.22;;;2.55;;
61505;SDS011;47366;51.916;4.574;2023-04-06T11:08:25;5.57;;;2.78;;
61505;SDS011;47366;51.916;4.574;2023-04-06T11:10:51;3.33;;;1.67;;
61505;SDS011;47366;51.916;4.574;2023-04-06T11:13:16;3.13;;;2.13;;
61505;SDS011;47366;51.916;4.574;2023-04-06T11:15:42;3.97;;;2.17;;
61505;SDS011;47366;51.916;4.574;2023-04-06T11:18:07;2.40;;;1.65;;
61505;SDS011;47366;51.916;4.574;2023-04-06T11:20:33;3.70;;;1.73;;
61505;SDS011;47366;51.916;4.574;2023-04-06T11:22:58;3.78;;;1.85;;
61505;SDS011;47366;51.916;4.574;2023-04-06T11:25:28;2.72;;;2.00;;
61505;SDS011;47366;51.916;4.574;2023-04-06T11:27:56;2.92;;;1.65;;
61505;SDS011;47366;51.916;4.574;2023-04-06T11:30:22;4.18;;;2.47;;
61505;SDS011;47366;51.916;4.574;2023-04-06T11:32:47;5.60;;;2.13;;
61505;SDS011;47366;51.916;4.574;2023-04-06T11:35:19;4.47;;;2.42;;
61505;SDS011;47366;51.916;4.574;2023-04-06T11:37:46;3.33;;;2.05;;
61505;SDS011;47366;51.916;4.574;2023-04-06T11:40:13;3.75;;;2.28;;
61505;SDS011;47366;51.916;4.574;2023-04-06T11:42:39;2.97;;;1.88;;
61505;SDS011;47366;51.916;4.574;2023-04-06T11:45:04;4.85;;;2.10;;
61505;SDS011;47366;51.916;4.574;2023-04-06T11:47:33;3.78;;;1.75;;
61505;SDS011;47366;51.916;4.574;2023-04-06T11:50:07;3.92;;;2.03;;
61505;SDS011;47366;51.916;4.574;2023-04-06T11:52:34;3.80;;;2.17;;
61505;SDS011;47366;51.916;4.574;2023-04-06T11:55:09;2.60;;;1.42;;
61505;SDS011;47366;51.916;4.574;2023-04-06T11:57:38;5.95;;;2.50;;
61505;SDS011;47366;51.916;4.574;2023-04-06T12:00:04;6.32;;;2.63;;
61505;SDS011;47366;51.916;4.574;2023-04-06T12:02:31;5.68;;;2.28;;
61505;SDS011;47366;51.916;4.574;2023-04-06T12:04:57;3.53;;;2.10;;
61505;SDS011;47366;51.916;4.574;2023-04-06T12:07:22;3.13;;;1.75;;
61505;SDS011;47366;51.916;4.574;2023-04-06T12:09:47;2.75;;;1.42;;
61505;SDS011;47366;51.916;4.574;2023-04-06T12:12:13;3.15;;;1.70;;
61505;SDS011;47366;51.916;4.574;2023-04-06T12:14:38;3.28;;;1.73;;
61505;SDS011;47366;51.916;4.574;2023-04-06T12:17:03;5.05;;;1.65;;
61505;SDS011;47366;51.916;4.574;2023-04-06T12:19:29;3.25;;;1.58;;
61505;SDS011;47366;51.916;4.574;2023-04-06T12:21:54;3.22;;;2.17;;
61505;SDS011;47366;51.916;4.574;2023-04-06T12:24:21;2.63;;;1.83;;
61505;SDS011;47366;51.916;4.574;2023-04-06T12:26:47;2.35;;;1.55;;
61505;SDS011;47366;51.916;4.574;2023-04-06T12:29:12;4.00;;;2.00;;
61505;SDS011;47366;51.916;4.574;2023-04-06T12:31:38;2.42;;;1.60;;
61505;SDS011;47366;51.916;4.574;2023-04-06T12:34:05;2.65;;;1.70;;
61505;SDS011;47366;51.916;4.574;2023-04-06T12:36:31;2.97;;;1.92;;
61505;SDS011;47366;51.916;4.574;2023-04-06T12:38:57;4.10;;;1.77;;
61505;SDS011;47366;51.916;4.574;2023-04-06T12:41:22;3.08;;;1.65;;
61505;SDS011;47366;51.916;4.574;2023-04-06T12:43:48;4.28;;;2.58;;
61505;SDS011;47366;51.916;4.574;2023-04-06T12:46:14;3.40;;;2.30;;
61505;SDS011;47366;51.916;4.574;2023-04-06T12:48:40;2.80;;;1.73;;
61505;SDS011;47366;51.916;4.574;2023-04-06T12:51:05;2.17;;;1.40;;
61505;SDS011;47366;51.916;4.574;2023-04-06T12:53:31;3.08;;;1.40;;
61505;SDS011;47366;51.916;4.574;2023-04-06T12:55:58;2.15;;;1.42;;
61505;SDS011;47366;51.916;4.574;2023-04-06T12:58:24;4.43;;;2.17;;
61505;SDS011;47366;51.916;4.574;2023-04-06T13:00:51;3.45;;;1.52;;
61505;SDS011;47366;51.916;4.574;2023-04-06T13:03:17;2.13;;;1.55;;
61505;SDS011;47366;51.916;4.574;2023-04-06T13:05:44;3.95;;;1.77;;
61505;SDS011;47366;51.916;4.574;2023-04-06T13:08:10;6.00;;;1.67;;
61505;SDS011;47366;51.916;4.574;2023-04-06T13:10:36;2.85;;;1.90;;
61505;SDS011;47366;51.916;4.574;2023-04-06T13:13:02;3.35;;;2.00;;
61505;SDS011;47366;51.916;4.574;2023-04-06T13:15:27;2.50;;;1.60;;
61505;SDS011;47366;51.916;4.574;2023-04-06T13:17:53;2.83;;;1.95;;
61505;SDS011;47366;51.916;4.574;2023-04-06T13:20:18;5.68;;;2.63;;
61505;SDS011;47366;51.916;4.574;2023-04-06T13:22:43;2.90;;;1.60;;
61505;SDS011;47366;51.916;4.574;2023-04-06T13:25:09;3.80;;;1.50;;
61505;SDS011;47366;51.916;4.574;2023-04-06T13:27:34;3.13;;;1.20;;
61505;SDS011;47366;51.916;4.574;2023-04-06T13:30:01;3.60;;;2.22;;
61505;SDS011;47366;51.916;4.574;2023-04-06T13:32:27;11.02;;;2.25;;
61505;SDS011;47366;51.916;4.574;2023-04-06T13:34:56;2.72;;;1.75;;
61505;SDS011;47366;51.916;4.574;2023-04-06T13:37:22;2.42;;;1.55;;
61505;SDS011;47366;51.916;4.574;2023-04-06T13:39:47;5.22;;;1.83;;
61505;SDS011;47366;51.916;4.574;2023-04-06T13:42:13;3.60;;;1.35;;
61505;SDS011;47366;51.916;4.574;2023-04-06T13:44:38;1.88;;;1.02;;
61505;SDS011;47366;51.916;4.574;2023-04-06T13:47:03;1.80;;;1.38;;
61505;SDS011;47366;51.916;4.574;2023-04-06T13:49:29;2.45;;;1.17;;
61505;SDS011;47366;51.916;4.574;2023-04-06T13:51:55;2.55;;;1.70;;
61505;SDS011;47366;51.916;4.574;2023-04-06T13:54:20;2.30;;;1.75;;
61505;SDS011;47366;51.916;4.574;2023-04-06T13:56:46;6.22;;;1.73;;
61505;SDS011;47366;51.916;4.574;2023-04-06T13:59:11;3.10;;;1.83;;
61505;SDS011;47366;51.916;4.574;2023-04-06T14:01:37;2.92;;;1.58;;
61505;SDS011;47366;51.916;4.574;2023-04-06T14:04:02;3.63;;;1.05;;
61505;SDS011;47366;51.916;4.574;2023-04-06T14:06:27;2.90;;;1.90;;
61505;SDS011;47366;51.916;4.574;2023-04-06T14:08:53;3.58;;;1.70;;
61505;SDS011;47366;51.916;4.574;2023-04-06T14:11:18;2.70;;;1.73;;
61505;SDS011;47366;51.916;4.574;2023-04-06T14:13:44;4.32;;;1.67;;
61505;SDS011;47366;51.916;4.574;2023-04-06T14:16:10;2.28;;;1.15;;
61505;SDS011;47366;51.916;4.574;2023-04-06T14:18:36;2.03;;;1.45;;
61505;SDS011;47366;51.916;4.574;2023-04-06T14:21:01;2.78;;;1.85;;
61505;SDS011;47366;51.916;4.574;2023-04-06T14:23:27;1.65;;;1.23;;
61505;SDS011;47366;51.916;4.574;2023-04-06T14:26:06;2.17;;;1.65;;
61505;SDS011;47366;51.916;4.574;2023-04-06T14:28:33;2.65;;;1.13;;
61505;SDS011;47366;51.916;4.574;2023-04-06T14:30:59;1.30;;;1.08;;
61505;SDS011;47366;51.916;4.574;2023-04-06T14:33:25;2.33;;;1.60;;
61505;SDS011;47366;51.916;4.574;2023-04-06T14:35:52;2.80;;;1.58;;
61505;SDS011;47366;51.916;4.574;2023-04-06T14:38:17;1.80;;;1.05;;
61505;SDS011;47366;51.916;4.574;2023-04-06T14:40:42;2.53;;;1.30;;
61505;SDS011;47366;51.916;4.574;2023-04-06T14:43:08;2.78;;;1.52;;
61505;SDS011;47366;51.916;4.574;2023-04-06T14:45:33;3.72;;;1.70;;
61505;SDS011;47366;51.916;4.574;2023-04-06T14:48:00;2.00;;;1.40;;
61505;SDS011;47366;51.916;4.574;2023-04-06T14:50:25;3.47;;;2.05;;
61505;SDS011;47366;51.916;4.574;2023-04-06T14:52:51;1.73;;;1.30;;
61505;SDS011;47366;51.916;4.574;2023-04-06T14:55:16;2.33;;;1.67;;